sensor_id;sensor_type;location;lat;lon;timestamp;P1;durP1;ratioP1;P2;durP2;ratioP2
28523;SDS011;15734;50.904;6.922;2022-11-15T00:01:40;15.88;;;8.13;;
28523;SDS011;15734;50.904;6.922;2022-11-15T00:04:06;18.65;;;8.40;;
28523;SDS011;15734;50.904;6.922;2022-11-15T00:06:31;14.60;;;7.47;;
28523;SDS011;15734;50.904;6.922;2022-11-15T00:08:58;15.82;;;8.30;;
28523;SDS011;15734;50.904;6.922;2022-11-15T00:11:24;14.43;;;7.97;;
28523;SDS011;15734;50.904;6.922;2022-11-15T00:13:49;16.83;;;9.27;;
28523;SDS011;15734;50.904;6.922;2022-11-15T00:16:15;17.50;;;8.57;;
28523;SDS011;15734;50.904;6.922;2022-11-15T00:18:40;16.23;;;8.63;;
28523;SDS011;15734;50.904;6.922;2022-11-15T00:21:08;17.20;;;7.85;;
28523;SDS011;15734;50.904;6.922;2022-11-15T00:23:36;20.08;;;9.00;;
28523;SDS011;15734;50.904;6.922;2022-11-15T00:26:02;20.92;;;8.60;;
28523;SDS011;15734;50.904;6.922;2022-11-15T00:28:27;12.55;;;7.70;;
28523;SDS011;15734;50.904;6.922;2022-11-15T00:30:54;15.52;;;8.68;;
28523;SDS011;15734;50.904;6.922;2022-11-15T00:33:25;17.80;;;9.52;;
28523;SDS011;15734;50.904;6.922;2022-11-15T00:35:50;13.63;;;7.70;;
28523;SDS011;15734;50.904;6.922;2022-11-15T00:38:16;15.48;;;7.78;;
28523;SDS011;15734;50.904;6.922;2022-11-15T00:40:41;22.48;;;9.85;;
28523;SDS011;15734;50.904;6.922;2022-11-15T00:43:07;13.73;;;8.15;;
28523;SDS011;15734;50.904;6.922;2022-11-15T00:45:32;18.65;;;8.02;;
28523;SDS011;15734;50.904;6.922;2022-11-15T00:47:58;19.80;;;9.10;;
28523;SDS011;15734;50.904;6.922;2022-11-15T00:50:24;20.13;;;8.60;;
28523;SDS011;15734;50.904;6.922;2022-11-15T00:52:49;17.35;;;8.13;;
28523;SDS011;15734;50.904;6.922;2022-11-15T00:55:15;13.65;;;8.25;;
28523;SDS011;15734;50.904;6.922;2022-11-15T00:57:41;13.15;;;8.02;;
28523;SDS011;15734;50.904;6.922;2022-11-15T01:00:07;16.17;;;8.68;;
28523;SDS011;15734;50.904;6.922;2022-11-15T01:02:34;16.33;;;8.88;;
28523;SDS011;15734;50.904;6.922;2022-11-15T01:04:59;13.48;;;8.00;;
28523;SDS011;15734;50.904;6.922;2022-11-15T01:07:25;17.02;;;8.00;;
28523;SDS011;15734;50.904;6.922;2022-11-15T01:09:50;13.63;;;7.78;;
28523;SDS011;15734;50.904;6.922;2022-11-15T01:12:16;17.80;;;7.78;;
28523;SDS011;15734;50.904;6.922;2022-11-15T01:14:42;16.00;;;8.02;;
28523;SDS011;15734;50.904;6.922;2022-11-15T01:17:07;11.65;;;6.85;;
28523;SDS011;15734;50.904;6.922;2022-11-15T01:19:33;21.48;;;7.55;;
28523;SDS011;15734;50.904;6.922;2022-11-15T01:21:58;14.10;;;7.47;;
28523;SDS011;15734;50.904;6.922;2022-11-15T01:24:24;14.73;;;8.10;;
28523;SDS011;15734;50.904;6.922;2022-11-15T01:26:49;13.27;;;7.60;;
28523;SDS011;15734;50.904;6.922;2022-11-15T01:29:15;14.15;;;7.75;;
28523;SDS011;15734;50.904;6.922;2022-11-15T01:31:41;13.30;;;7.43;;
28523;SDS011;15734;50.904;6.922;2022-11-15T01:34:06;17.08;;;7.20;;
28523;SDS011;15734;50.904;6.922;2022-11-15T01:36:32;17.50;;;8.07;;
28523;SDS011;15734;50.904;6.922;2022-11-15T01:38:57;16.83;;;8.40;;
28523;SDS011;15734;50.904;6.922;2022-11-15T01:41:25;14.15;;;7.70;;
28523;SDS011;15734;50.904;6.922;2022-11-15T01:43:54;16.60;;;8.25;;
28523;SDS011;15734;50.904;6.922;2022-11-15T01:48:46;18.90;;;8.32;;
28523;SDS011;15734;50.904;6.922;2022-11-15T01:51:14;18.23;;;8.05;;
28523;SDS011;15734;50.904;6.922;2022-11-15T01:53:43;17.77;;;8.85;;
28523;SDS011;15734;50.904;6.922;2022-11-15T01:56:23;21.40;;;8.90;;
28523;SDS011;15734;50.904;6.922;2022-11-15T01:58:52;12.80;;;7.53;;
28523;SDS011;15734;50.904;6.922;2022-11-15T02:01:20;14.23;;;7.82;;
28523;SDS011;15734;50.904;6.922;2022-11-15T02:03:52;19.38;;;8.05;;
28523;SDS011;15734;50.904;6.922;2022-11-15T02:08:47;12.23;;;7.07;;
28523;SDS011;15734;50.904;6.922;2022-11-15T02:11:15;15.13;;;8.02;;
28523;SDS011;15734;50.904;6.922;2022-11-15T02:13:40;11.57;;;6.80;;
28523;SDS011;15734;50.904;6.922;2022-11-15T02:18:52;17.15;;;8.63;;
28523;SDS011;15734;50.904;6.922;2022-11-15T02:21:36;16.88;;;8.38;;
28523;SDS011;15734;50.904;6.922;2022-11-15T02:27:20;15.10;;;7.57;;
28523;SDS011;15734;50.904;6.922;2022-11-15T02:32:49;17.30;;;7.93;;
28523;SDS011;15734;50.904;6.922;2022-11-15T02:35:43;15.82;;;7.47;;
28523;SDS011;15734;50.904;6.922;2022-11-15T02:38:22;13.77;;;7.63;;
28523;SDS011;15734;50.904;6.922;2022-11-15T02:41:15;13.32;;;8.05;;
28523;SDS011;15734;50.904;6.922;2022-11-15T02:46:46;25.40;;;8.60;;
28523;SDS011;15734;50.904;6.922;2022-11-15T02:49:34;21.60;;;8.60;;
28523;SDS011;15734;50.904;6.922;2022-11-15T02:52:00;11.90;;;8.10;;
28523;SDS011;15734;50.904;6.922;2022-11-15T02:54:29;16.02;;;8.85;;
28523;SDS011;15734;50.904;6.922;2022-11-15T02:56:58;21.27;;;8.77;;
28523;SDS011;15734;50.904;6.922;2022-11-15T02:59:43;15.23;;;8.35;;
28523;SDS011;15734;50.904;6.922;2022-11-15T03:05:25;13.70;;;7.75;;
28523;SDS011;15734;50.904;6.922;2022-11-15T03:08:02;14.40;;;7.93;;
28523;SDS011;15734;50.904;6.922;2022-11-15T03:15:57;12.43;;;7.57;;
28523;SDS011;15734;50.904;6.922;2022-11-15T03:20:57;10.52;;;6.50;;
28523;SDS011;15734;50.904;6.922;2022-11-15T03:23:26;18.08;;;7.63;;
28523;SDS011;15734;50.904;6.922;2022-11-15T03:25:53;13.27;;;6.93;;
28523;SDS011;15734;50.904;6.922;2022-11-15T03:28:25;12.48;;;7.13;;
28523;SDS011;15734;50.904;6.922;2022-11-15T03:30:58;14.73;;;8.00;;
28523;SDS011;15734;50.904;6.922;2022-11-15T03:33:26;17.55;;;6.95;;
28523;SDS011;15734;50.904;6.922;2022-11-15T03:35:54;11.63;;;7.15;;
28523;SDS011;15734;50.904;6.922;2022-11-15T03:38:26;11.00;;;6.32;;
28523;SDS011;15734;50.904;6.922;2022-11-15T03:46:12;9.52;;;6.55;;
28523;SDS011;15734;50.904;6.922;2022-11-15T03:48:46;10.10;;;6.38;;
28523;SDS011;15734;50.904;6.922;2022-11-15T03:51:16;13.65;;;7.15;;
28523;SDS011;15734;50.904;6.922;2022-11-15T03:53:42;15.15;;;6.68;;
28523;SDS011;15734;50.904;6.922;2022-11-15T03:56:07;17.63;;;6.50;;
28523;SDS011;15734;50.904;6.922;2022-11-15T03:58:33;15.07;;;7.03;;
28523;SDS011;15734;50.904;6.922;2022-11-15T04:00:58;12.00;;;5.53;;
28523;SDS011;15734;50.904;6.922;2022-11-15T04:03:24;9.27;;;5.90;;
28523;SDS011;15734;50.904;6.922;2022-11-15T04:05:50;14.57;;;6.15;;
28523;SDS011;15734;50.904;6.922;2022-11-15T04:08:15;10.05;;;5.82;;
28523;SDS011;15734;50.904;6.922;2022-11-15T04:10:41;14.20;;;5.95;;
28523;SDS011;15734;50.904;6.922;2022-11-15T04:13:07;13.60;;;6.82;;
28523;SDS011;15734;50.904;6.922;2022-11-15T04:15:33;11.50;;;5.53;;
28523;SDS011;15734;50.904;6.922;2022-11-15T04:17:59;13.80;;;6.47;;
28523;SDS011;15734;50.904;6.922;2022-11-15T04:20:25;10.32;;;5.88;;
28523;SDS011;15734;50.904;6.922;2022-11-15T04:23:12;11.68;;;6.07;;
28523;SDS011;15734;50.904;6.922;2022-11-15T04:25:59;10.68;;;6.20;;
28523;SDS011;15734;50.904;6.922;2022-11-15T04:28:40;9.05;;;5.90;;
28523;SDS011;15734;50.904;6.922;2022-11-15T04:31:24;14.93;;;7.43;;
28523;SDS011;15734;50.904;6.922;2022-11-15T04:33:50;8.95;;;6.65;;
28523;SDS011;15734;50.904;6.922;2022-11-15T04:36:16;14.13;;;6.68;;
28523;SDS011;15734;50.904;6.922;2022-11-15T04:39:00;14.73;;;7.60;;
28523;SDS011;15734;50.904;6.922;2022-11-15T04:41:25;12.48;;;7.20;;
28523;SDS011;15734;50.904;6.922;2022-11-15T04:43:51;15.60;;;8.23;;
28523;SDS011;15734;50.904;6.922;2022-11-15T04:46:17;13.82;;;7.38;;
28523;SDS011;15734;50.904;6.922;2022-11-15T04:48:42;12.20;;;7.72;;
28523;SDS011;15734;50.904;6.922;2022-11-15T04:51:08;13.25;;;6.90;;
28523;SDS011;15734;50.904;6.922;2022-11-15T04:53:33;10.85;;;7.30;;
28523;SDS011;15734;50.904;6.922;2022-11-15T04:55:59;13.35;;;7.18;;
28523;SDS011;15734;50.904;6.922;2022-11-15T04:58:24;13.13;;;7.43;;
28523;SDS011;15734;50.904;6.922;2022-11-15T05:00:50;10.77;;;7.30;;
28523;SDS011;15734;50.904;6.922;2022-11-15T05:03:15;13.73;;;6.70;;
28523;SDS011;15734;50.904;6.922;2022-11-15T05:11:14;11.82;;;7.03;;
28523;SDS011;15734;50.904;6.922;2022-11-15T05:13:39;9.48;;;6.70;;
28523;SDS011;15734;50.904;6.922;2022-11-15T05:16:05;11.70;;;6.43;;
28523;SDS011;15734;50.904;6.922;2022-11-15T05:18:31;12.38;;;7.15;;
28523;SDS011;15734;50.904;6.922;2022-11-15T05:21:02;11.95;;;6.68;;
28523;SDS011;15734;50.904;6.922;2022-11-15T05:23:46;9.50;;;6.70;;
28523;SDS011;15734;50.904;6.922;2022-11-15T05:26:12;11.90;;;7.45;;
28523;SDS011;15734;50.904;6.922;2022-11-15T05:28:40;12.45;;;7.15;;
28523;SDS011;15734;50.904;6.922;2022-11-15T05:31:06;12.98;;;6.32;;
28523;SDS011;15734;50.904;6.922;2022-11-15T05:33:33;12.10;;;6.55;;
28523;SDS011;15734;50.904;6.922;2022-11-15T05:38:34;11.35;;;6.68;;
28523;SDS011;15734;50.904;6.922;2022-11-15T05:41:00;12.00;;;6.60;;
28523;SDS011;15734;50.904;6.922;2022-11-15T05:43:29;10.32;;;6.93;;
28523;SDS011;15734;50.904;6.922;2022-11-15T05:45:57;19.13;;;7.53;;
28523;SDS011;15734;50.904;6.922;2022-11-15T05:48:24;9.45;;;6.45;;
28523;SDS011;15734;50.904;6.922;2022-11-15T05:50:50;9.60;;;6.15;;
28523;SDS011;15734;50.904;6.922;2022-11-15T05:53:17;10.98;;;6.32;;
28523;SDS011;15734;50.904;6.922;2022-11-15T05:55:45;15.18;;;6.80;;
28523;SDS011;15734;50.904;6.922;2022-11-15T05:58:11;10.43;;;6.15;;
28523;SDS011;15734;50.904;6.922;2022-11-15T06:00:37;10.23;;;6.10;;
28523;SDS011;15734;50.904;6.922;2022-11-15T06:03:02;9.73;;;6.35;;
28523;SDS011;15734;50.904;6.922;2022-11-15T06:05:28;10.93;;;5.82;;
28523;SDS011;15734;50.904;6.922;2022-11-15T06:07:56;7.80;;;5.55;;
28523;SDS011;15734;50.904;6.922;2022-11-15T06:10:23;19.35;;;5.45;;
28523;SDS011;15734;50.904;6.922;2022-11-15T06:12:55;11.70;;;5.88;;
28523;SDS011;15734;50.904;6.922;2022-11-15T06:15:22;8.43;;;5.32;;
28523;SDS011;15734;50.904;6.922;2022-11-15T06:17:47;9.55;;;5.75;;
28523;SDS011;15734;50.904;6.922;2022-11-15T06:20:13;9.65;;;5.50;;
28523;SDS011;15734;50.904;6.922;2022-11-15T06:22:39;9.57;;;5.30;;
28523;SDS011;15734;50.904;6.922;2022-11-15T06:25:04;9.32;;;5.43;;
28523;SDS011;15734;50.904;6.922;2022-11-15T06:27:30;11.38;;;4.53;;
28523;SDS011;15734;50.904;6.922;2022-11-15T06:29:56;9.50;;;4.40;;
28523;SDS011;15734;50.904;6.922;2022-11-15T06:32:21;6.20;;;4.20;;
28523;SDS011;15734;50.904;6.922;2022-11-15T06:34:47;10.27;;;4.47;;
28523;SDS011;15734;50.904;6.922;2022-11-15T06:37:12;7.38;;;3.35;;
28523;SDS011;15734;50.904;6.922;2022-11-15T06:39:38;9.88;;;4.20;;
28523;SDS011;15734;50.904;6.922;2022-11-15T06:42:03;6.55;;;3.70;;
28523;SDS011;15734;50.904;6.922;2022-11-15T06:44:29;13.40;;;4.32;;
28523;SDS011;15734;50.904;6.922;2022-11-15T06:46:54;6.88;;;3.58;;
28523;SDS011;15734;50.904;6.922;2022-11-15T06:49:20;5.85;;;2.90;;
28523;SDS011;15734;50.904;6.922;2022-11-15T06:51:45;6.53;;;2.90;;
28523;SDS011;15734;50.904;6.922;2022-11-15T06:54:11;7.20;;;3.30;;
28523;SDS011;15734;50.904;6.922;2022-11-15T06:56:36;5.38;;;2.83;;
28523;SDS011;15734;50.904;6.922;2022-11-15T06:59:02;5.13;;;3.22;;
28523;SDS011;15734;50.904;6.922;2022-11-15T07:01:27;8.55;;;3.17;;
28523;SDS011;15734;50.904;6.922;2022-11-15T07:03:53;6.78;;;2.85;;
28523;SDS011;15734;50.904;6.922;2022-11-15T07:06:18;3.40;;;2.30;;
28523;SDS011;15734;50.904;6.922;2022-11-15T07:08:44;2.05;;;1.73;;
28523;SDS011;15734;50.904;6.922;2022-11-15T07:11:10;7.30;;;2.70;;
28523;SDS011;15734;50.904;6.922;2022-11-15T07:13:36;4.15;;;2.30;;
28523;SDS011;15734;50.904;6.922;2022-11-15T07:16:02;4.50;;;2.20;;
28523;SDS011;15734;50.904;6.922;2022-11-15T07:18:38;4.78;;;2.22;;
28523;SDS011;15734;50.904;6.922;2022-11-15T07:21:05;4.50;;;2.22;;
28523;SDS011;15734;50.904;6.922;2022-11-15T07:23:38;4.63;;;1.90;;
28523;SDS011;15734;50.904;6.922;2022-11-15T07:26:04;3.83;;;1.90;;
28523;SDS011;15734;50.904;6.922;2022-11-15T07:28:30;4.05;;;2.28;;
28523;SDS011;15734;50.904;6.922;2022-11-15T07:30:56;5.35;;;2.58;;
28523;SDS011;15734;50.904;6.922;2022-11-15T07:33:22;4.68;;;2.10;;
28523;SDS011;15734;50.904;6.922;2022-11-15T07:35:47;5.90;;;1.92;;
28523;SDS011;15734;50.904;6.922;2022-11-15T07:38:16;4.28;;;1.92;;
28523;SDS011;15734;50.904;6.922;2022-11-15T07:40:45;4.32;;;2.08;;
28523;SDS011;15734;50.904;6.922;2022-11-15T07:43:11;5.10;;;1.80;;
28523;SDS011;15734;50.904;6.922;2022-11-15T07:45:43;5.35;;;2.28;;
28523;SDS011;15734;50.904;6.922;2022-11-15T07:48:10;3.30;;;1.73;;
28523;SDS011;15734;50.904;6.922;2022-11-15T07:50:36;3.00;;;1.65;;
28523;SDS011;15734;50.904;6.922;2022-11-15T07:53:01;3.38;;;1.60;;
28523;SDS011;15734;50.904;6.922;2022-11-15T07:55:27;4.68;;;1.52;;
28523;SDS011;15734;50.904;6.922;2022-11-15T07:58:02;4.18;;;1.80;;
28523;SDS011;15734;50.904;6.922;2022-11-15T08:00:29;1.65;;;1.30;;
28523;SDS011;15734;50.904;6.922;2022-11-15T08:03:05;3.90;;;1.75;;
28523;SDS011;15734;50.904;6.922;2022-11-15T08:05:35;2.95;;;1.77;;
28523;SDS011;15734;50.904;6.922;2022-11-15T08:08:02;4.82;;;1.50;;
28523;SDS011;15734;50.904;6.922;2022-11-15T08:10:28;5.28;;;1.50;;
28523;SDS011;15734;50.904;6.922;2022-11-15T08:13:12;3.33;;;1.65;;
28523;SDS011;15734;50.904;6.922;2022-11-15T08:15:38;2.53;;;1.40;;
28523;SDS011;15734;50.904;6.922;2022-11-15T08:18:05;2.10;;;1.38;;
28523;SDS011;15734;50.904;6.922;2022-11-15T08:20:34;5.50;;;1.60;;
28523;SDS011;15734;50.904;6.922;2022-11-15T08:23:01;6.35;;;1.50;;
28523;SDS011;15734;50.904;6.922;2022-11-15T08:25:29;3.22;;;1.60;;
28523;SDS011;15734;50.904;6.922;2022-11-15T08:27:56;4.32;;;1.27;;
28523;SDS011;15734;50.904;6.922;2022-11-15T08:30:24;3.53;;;1.20;;
28523;SDS011;15734;50.904;6.922;2022-11-15T08:32:50;4.47;;;1.40;;
28523;SDS011;15734;50.904;6.922;2022-11-15T08:35:17;5.65;;;1.15;;
28523;SDS011;15734;50.904;6.922;2022-11-15T08:37:43;1.85;;;1.20;;
28523;SDS011;15734;50.904;6.922;2022-11-15T08:40:09;4.95;;;1.35;;
28523;SDS011;15734;50.904;6.922;2022-11-15T08:42:35;3.22;;;1.30;;
28523;SDS011;15734;50.904;6.922;2022-11-15T08:45:01;1.58;;;1.00;;
28523;SDS011;15734;50.904;6.922;2022-11-15T08:47:27;1.70;;;1.10;;
28523;SDS011;15734;50.904;6.922;2022-11-15T08:49:52;2.85;;;1.20;;
28523;SDS011;15734;50.904;6.922;2022-11-15T08:52:18;1.05;;;0.95;;
28523;SDS011;15734;50.904;6.922;2022-11-15T08:54:44;7.25;;;2.28;;
28523;SDS011;15734;50.904;6.922;2022-11-15T08:57:09;3.10;;;1.40;;
28523;SDS011;15734;50.904;6.922;2022-11-15T08:59:37;4.43;;;1.30;;
28523;SDS011;15734;50.904;6.922;2022-11-15T09:02:03;1.88;;;1.00;;
28523;SDS011;15734;50.904;6.922;2022-11-15T09:04:29;15.80;;;1.42;;
28523;SDS011;15734;50.904;6.922;2022-11-15T09:06:55;1.90;;;1.13;;
28523;SDS011;15734;50.904;6.922;2022-11-15T09:09:21;3.17;;;1.27;;
28523;SDS011;15734;50.904;6.922;2022-11-15T09:11:46;2.17;;;1.15;;
28523;SDS011;15734;50.904;6.922;2022-11-15T09:14:12;2.15;;;1.05;;
28523;SDS011;15734;50.904;6.922;2022-11-15T09:16:39;1.95;;;1.05;;
28523;SDS011;15734;50.904;6.922;2022-11-15T09:19:04;1.55;;;1.10;;
28523;SDS011;15734;50.904;6.922;2022-11-15T09:21:30;2.97;;;1.10;;
28523;SDS011;15734;50.904;6.922;2022-11-15T09:23:56;2.22;;;1.10;;
28523;SDS011;15734;50.904;6.922;2022-11-15T09:26:22;3.35;;;0.80;;
28523;SDS011;15734;50.904;6.922;2022-11-15T09:28:48;1.83;;;1.00;;
28523;SDS011;15734;50.904;6.922;2022-11-15T09:31:13;1.70;;;1.05;;
28523;SDS011;15734;50.904;6.922;2022-11-15T09:33:39;3.55;;;1.00;;
28523;SDS011;15734;50.904;6.922;2022-11-15T09:36:07;3.08;;;1.38;;
28523;SDS011;15734;50.904;6.922;2022-11-15T09:38:34;4.18;;;1.15;;
28523;SDS011;15734;50.904;6.922;2022-11-15T09:43:50;2.75;;;0.90;;
28523;SDS011;15734;50.904;6.922;2022-11-15T09:49:35;0.80;;;0.80;;
28523;SDS011;15734;50.904;6.922;2022-11-15T09:52:00;1.40;;;0.82;;
28523;SDS011;15734;50.904;6.922;2022-11-15T09:54:31;6.43;;;1.20;;
28523;SDS011;15734;50.904;6.922;2022-11-15T09:57:03;4.55;;;1.30;;
28523;SDS011;15734;50.904;6.922;2022-11-15T09:59:52;4.85;;;0.80;;
28523;SDS011;15734;50.904;6.922;2022-11-15T10:04:54;3.65;;;0.68;;
28523;SDS011;15734;50.904;6.922;2022-11-15T10:13:02;2.15;;;0.80;;
28523;SDS011;15734;50.904;6.922;2022-11-15T10:15:28;6.45;;;0.70;;
28523;SDS011;15734;50.904;6.922;2022-11-15T10:18:04;3.60;;;0.90;;
28523;SDS011;15734;50.904;6.922;2022-11-15T10:20:32;3.78;;;0.90;;
28523;SDS011;15734;50.904;6.922;2022-11-15T10:23:06;9.55;;;1.20;;
28523;SDS011;15734;50.904;6.922;2022-11-15T10:25:37;2.30;;;0.60;;
28523;SDS011;15734;50.904;6.922;2022-11-15T10:30:40;3.80;;;0.82;;
28523;SDS011;15734;50.904;6.922;2022-11-15T10:41:13;4.72;;;0.75;;
28523;SDS011;15734;50.904;6.922;2022-11-15T10:43:40;1.17;;;0.70;;
28523;SDS011;15734;50.904;6.922;2022-11-15T10:46:22;3.03;;;0.60;;
28523;SDS011;15734;50.904;6.922;2022-11-15T10:48:49;0.50;;;0.50;;
28523;SDS011;15734;50.904;6.922;2022-11-15T10:51:19;5.80;;;0.70;;
28523;SDS011;15734;50.904;6.922;2022-11-15T10:53:51;3.60;;;0.70;;
28523;SDS011;15734;50.904;6.922;2022-11-15T10:56:17;4.22;;;0.77;;
28523;SDS011;15734;50.904;6.922;2022-11-15T10:58:51;1.65;;;0.65;;
28523;SDS011;15734;50.904;6.922;2022-11-15T11:01:24;0.98;;;0.60;;
28523;SDS011;15734;50.904;6.922;2022-11-15T11:04:04;5.55;;;0.93;;
28523;SDS011;15734;50.904;6.922;2022-11-15T11:06:45;1.92;;;0.65;;
28523;SDS011;15734;50.904;6.922;2022-11-15T11:11:57;4.47;;;1.02;;
28523;SDS011;15734;50.904;6.922;2022-11-15T11:14:24;5.70;;;0.55;;
28523;SDS011;15734;50.904;6.922;2022-11-15T11:25:30;3.05;;;0.60;;
28523;SDS011;15734;50.904;6.922;2022-11-15T11:28:11;1.75;;;0.50;;
28523;SDS011;15734;50.904;6.922;2022-11-15T11:31:00;2.15;;;0.50;;
28523;SDS011;15734;50.904;6.922;2022-11-15T11:36:44;2.45;;;0.75;;
28523;SDS011;15734;50.904;6.922;2022-11-15T11:45:10;3.90;;;0.50;;
28523;SDS011;15734;50.904;6.922;2022-11-15T11:50:26;1.02;;;0.47;;
28523;SDS011;15734;50.904;6.922;2022-11-15T11:55:47;4.35;;;0.52;;
28523;SDS011;15734;50.904;6.922;2022-11-15T12:00:51;4.68;;;0.57;;
28523;SDS011;15734;50.904;6.922;2022-11-15T12:06:19;1.77;;;0.57;;
28523;SDS011;15734;50.904;6.922;2022-11-15T12:08:59;3.00;;;0.60;;
28523;SDS011;15734;50.904;6.922;2022-11-15T12:11:47;3.05;;;0.68;;
28523;SDS011;15734;50.904;6.922;2022-11-15T12:17:00;8.45;;;1.25;;
28523;SDS011;15734;50.904;6.922;2022-11-15T12:19:26;4.68;;;0.75;;
28523;SDS011;15734;50.904;6.922;2022-11-15T12:21:55;1.42;;;0.55;;
28523;SDS011;15734;50.904;6.922;2022-11-15T12:24:32;2.67;;;0.70;;
28523;SDS011;15734;50.904;6.922;2022-11-15T12:27:21;1.33;;;0.70;;
28523;SDS011;15734;50.904;6.922;2022-11-15T12:30:03;4.43;;;0.68;;
28523;SDS011;15734;50.904;6.922;2022-11-15T12:32:35;2.50;;;1.10;;
28523;SDS011;15734;50.904;6.922;2022-11-15T12:35:03;6.15;;;0.70;;
28523;SDS011;15734;50.904;6.922;2022-11-15T12:37:49;1.33;;;0.63;;
28523;SDS011;15734;50.904;6.922;2022-11-15T12:48:44;5.72;;;0.90;;
28523;SDS011;15734;50.904;6.922;2022-11-15T13:07:05;2.97;;;1.15;;
28523;SDS011;15734;50.904;6.922;2022-11-15T13:12:06;2.78;;;1.00;;
28523;SDS011;15734;50.904;6.922;2022-11-15T13:17:23;2.67;;;1.20;;
28523;SDS011;15734;50.904;6.922;2022-11-15T13:19:55;2.83;;;1.40;;
28523;SDS011;15734;50.904;6.922;2022-11-15T13:22:50;3.53;;;1.05;;
28523;SDS011;15734;50.904;6.922;2022-11-15T13:30:40;3.55;;;1.38;;
28523;SDS011;15734;50.904;6.922;2022-11-15T13:33:14;3.60;;;1.10;;
28523;SDS011;15734;50.904;6.922;2022-11-15T13:35:46;3.67;;;1.13;;
28523;SDS011;15734;50.904;6.922;2022-11-15T13:38:31;4.72;;;1.58;;
28523;SDS011;15734;50.904;6.922;2022-11-15T13:41:18;3.63;;;1.63;;
28523;SDS011;15734;50.904;6.922;2022-11-15T13:43:49;4.85;;;2.08;;
28523;SDS011;15734;50.904;6.922;2022-11-15T13:48:52;5.00;;;1.77;;
28523;SDS011;15734;50.904;6.922;2022-11-15T13:51:25;3.28;;;1.52;;
28523;SDS011;15734;50.904;6.922;2022-11-15T13:53:57;11.25;;;2.05;;
28523;SDS011;15734;50.904;6.922;2022-11-15T13:56:27;6.75;;;1.80;;
28523;SDS011;15734;50.904;6.922;2022-11-15T13:58:53;7.57;;;2.20;;
28523;SDS011;15734;50.904;6.922;2022-11-15T14:01:20;5.25;;;2.25;;
28523;SDS011;15734;50.904;6.922;2022-11-15T14:03:54;2.92;;;1.80;;
28523;SDS011;15734;50.904;6.922;2022-11-15T14:06:23;6.35;;;1.85;;
28523;SDS011;15734;50.904;6.922;2022-11-15T14:11:54;3.15;;;1.75;;
28523;SDS011;15734;50.904;6.922;2022-11-15T14:14:22;4.75;;;1.83;;
28523;SDS011;15734;50.904;6.922;2022-11-15T14:16:50;4.10;;;1.92;;
28523;SDS011;15734;50.904;6.922;2022-11-15T14:30:35;4.80;;;2.20;;
28523;SDS011;15734;50.904;6.922;2022-11-15T14:33:01;2.40;;;1.52;;
28523;SDS011;15734;50.904;6.922;2022-11-15T14:35:27;9.30;;;2.75;;
28523;SDS011;15734;50.904;6.922;2022-11-15T14:37:53;3.38;;;2.10;;
28523;SDS011;15734;50.904;6.922;2022-11-15T14:40:20;4.00;;;2.00;;
28523;SDS011;15734;50.904;6.922;2022-11-15T14:42:47;2.67;;;1.85;;
28523;SDS011;15734;50.904;6.922;2022-11-15T14:45:15;5.10;;;1.92;;
28523;SDS011;15734;50.904;6.922;2022-11-15T14:47:45;3.53;;;1.90;;
28523;SDS011;15734;50.904;6.922;2022-11-15T14:50:12;4.88;;;2.05;;
28523;SDS011;15734;50.904;6.922;2022-11-15T14:52:38;11.45;;;2.58;;
28523;SDS011;15734;50.904;6.922;2022-11-15T14:55:10;3.55;;;1.90;;
28523;SDS011;15734;50.904;6.922;2022-11-15T14:57:46;4.90;;;2.10;;
28523;SDS011;15734;50.904;6.922;2022-11-15T15:00:12;5.07;;;2.25;;
28523;SDS011;15734;50.904;6.922;2022-11-15T15:02:39;5.43;;;2.10;;
28523;SDS011;15734;50.904;6.922;2022-11-15T15:05:25;3.22;;;1.80;;
28523;SDS011;15734;50.904;6.922;2022-11-15T15:07:55;2.22;;;1.55;;
28523;SDS011;15734;50.904;6.922;2022-11-15T15:10:21;5.75;;;1.80;;
28523;SDS011;15734;50.904;6.922;2022-11-15T15:12:47;12.20;;;1.80;;
28523;SDS011;15734;50.904;6.922;2022-11-15T15:15:16;5.97;;;1.63;;
28523;SDS011;15734;50.904;6.922;2022-11-15T15:17:46;4.60;;;1.63;;
28523;SDS011;15734;50.904;6.922;2022-11-15T15:20:12;7.25;;;1.67;;
28523;SDS011;15734;50.904;6.922;2022-11-15T15:22:37;2.95;;;1.55;;
28523;SDS011;15734;50.904;6.922;2022-11-15T15:25:08;4.35;;;1.15;;
28523;SDS011;15734;50.904;6.922;2022-11-15T15:30:14;2.70;;;1.30;;
28523;SDS011;15734;50.904;6.922;2022-11-15T15:32:40;5.15;;;1.77;;
28523;SDS011;15734;50.904;6.922;2022-11-15T15:35:05;3.75;;;1.60;;
28523;SDS011;15734;50.904;6.922;2022-11-15T15:37:31;3.05;;;1.60;;
28523;SDS011;15734;50.904;6.922;2022-11-15T15:39:58;3.78;;;1.50;;
28523;SDS011;15734;50.904;6.922;2022-11-15T15:42:24;4.32;;;1.90;;
28523;SDS011;15734;50.904;6.922;2022-11-15T15:44:50;2.15;;;1.25;;
28523;SDS011;15734;50.904;6.922;2022-11-15T15:47:17;6.38;;;1.70;;
28523;SDS011;15734;50.904;6.922;2022-11-15T15:49:45;4.95;;;1.70;;
28523;SDS011;15734;50.904;6.922;2022-11-15T15:52:11;4.40;;;1.50;;
28523;SDS011;15734;50.904;6.922;2022-11-15T15:54:37;2.95;;;1.40;;
28523;SDS011;15734;50.904;6.922;2022-11-15T15:57:03;7.28;;;1.77;;
28523;SDS011;15734;50.904;6.922;2022-11-15T15:59:29;7.82;;;1.25;;
28523;SDS011;15734;50.904;6.922;2022-11-15T16:01:55;2.72;;;1.50;;
28523;SDS011;15734;50.904;6.922;2022-11-15T16:04:21;5.05;;;1.58;;
28523;SDS011;15734;50.904;6.922;2022-11-15T16:06:46;2.58;;;1.13;;
28523;SDS011;15734;50.904;6.922;2022-11-15T16:09:16;2.45;;;1.45;;
28523;SDS011;15734;50.904;6.922;2022-11-15T16:11:43;3.67;;;1.33;;
28523;SDS011;15734;50.904;6.922;2022-11-15T16:14:09;2.50;;;1.50;;
28523;SDS011;15734;50.904;6.922;2022-11-15T16:16:36;2.85;;;1.40;;
28523;SDS011;15734;50.904;6.922;2022-11-15T16:19:02;5.05;;;1.45;;
28523;SDS011;15734;50.904;6.922;2022-11-15T16:21:28;4.50;;;2.50;;
28523;SDS011;15734;50.904;6.922;2022-11-15T16:23:54;18.30;;;6.78;;
28523;SDS011;15734;50.904;6.922;2022-11-15T16:26:26;5.80;;;2.20;;
28523;SDS011;15734;50.904;6.922;2022-11-15T16:28:53;2.47;;;1.50;;
28523;SDS011;15734;50.904;6.922;2022-11-15T16:31:19;2.58;;;1.45;;
28523;SDS011;15734;50.904;6.922;2022-11-15T16:33:47;3.28;;;1.45;;
28523;SDS011;15734;50.904;6.922;2022-11-15T16:36:20;3.33;;;1.83;;
28523;SDS011;15734;50.904;6.922;2022-11-15T16:38:47;5.72;;;2.67;;
28523;SDS011;15734;50.904;6.922;2022-11-15T16:41:13;3.17;;;1.63;;
28523;SDS011;15734;50.904;6.922;2022-11-15T16:43:39;4.70;;;1.80;;
28523;SDS011;15734;50.904;6.922;2022-11-15T16:46:11;4.63;;;1.75;;
28523;SDS011;15734;50.904;6.922;2022-11-15T16:48:45;4.50;;;1.98;;
28523;SDS011;15734;50.904;6.922;2022-11-15T16:51:11;5.35;;;1.50;;
28523;SDS011;15734;50.904;6.922;2022-11-15T16:53:36;2.55;;;1.00;;
28523;SDS011;15734;50.904;6.922;2022-11-15T16:56:02;4.97;;;2.03;;
28523;SDS011;15734;50.904;6.922;2022-11-15T16:58:28;6.10;;;1.98;;
28523;SDS011;15734;50.904;6.922;2022-11-15T17:00:54;9.30;;;3.58;;
28523;SDS011;15734;50.904;6.922;2022-11-15T17:03:21;9.65;;;2.72;;
28523;SDS011;15734;50.904;6.922;2022-11-15T17:05:47;5.32;;;2.05;;
28523;SDS011;15734;50.904;6.922;2022-11-15T17:08:13;4.35;;;1.88;;
28523;SDS011;15734;50.904;6.922;2022-11-15T17:10:39;2.65;;;1.45;;
28523;SDS011;15734;50.904;6.922;2022-11-15T17:13:05;4.30;;;1.63;;
28523;SDS011;15734;50.904;6.922;2022-11-15T17:15:35;4.63;;;2.10;;
28523;SDS011;15734;50.904;6.922;2022-11-15T17:18:01;3.55;;;1.63;;
28523;SDS011;15734;50.904;6.922;2022-11-15T17:20:26;6.03;;;1.48;;
28523;SDS011;15734;50.904;6.922;2022-11-15T17:22:52;5.72;;;2.63;;
28523;SDS011;15734;50.904;6.922;2022-11-15T17:25:18;3.92;;;2.05;;
28523;SDS011;15734;50.904;6.922;2022-11-15T17:27:44;4.82;;;2.15;;